createdAt,value
2022-12-14T00:02:27.341Z,100562.47
2022-12-14T00:04:54.426Z,100568.81
2022-12-14T00:07:21.931Z,100562.84
2022-12-14T00:09:49.090Z,100567.31
2022-12-14T00:12:16.343Z,100566.59
2022-12-14T00:14:43.366Z,100565.81
2022-12-14T00:17:10.327Z,100558.06
2022-12-14T00:19:37.220Z,100560.00
2022-12-14T00:22:04.112Z,100554.00
2022-12-14T00:24:31.210Z,100558.50
2022-12-14T00:26:58.202Z,100547.31
2022-12-14T00:29:25.208Z,100542.09
2022-12-14T00:31:52.212Z,100542.19
2022-12-14T00:34:19.083Z,100540.56
2022-12-14T00:36:45.928Z,100544.16
2022-12-14T00:39:12.749Z,100550.34
2022-12-14T00:41:39.748Z,100546.94
2022-12-14T00:44:06.757Z,100545.34
2022-12-14T00:46:33.686Z,100531.34
2022-12-14T00:49:00.645Z,100534.03
2022-12-14T00:51:27.758Z,100540.31
2022-12-14T00:53:55.117Z,100535.94
2022-12-14T00:56:22.023Z,100529.91
2022-12-14T00:58:53.531Z,100546.69
2022-12-14T01:01:22.050Z,100538.00
2022-12-14T01:03:49.906Z,100535.50
2022-12-14T01:06:19.960Z,100541.69
2022-12-14T01:08:47.802Z,100534.84
2022-12-14T01:11:15.658Z,100537.50
2022-12-14T01:13:43.013Z,100544.50
2022-12-14T01:16:12.865Z,100541.16
2022-12-14T01:18:42.612Z,100544.72
2022-12-14T01:21:18.372Z,100548.25
2022-12-14T01:23:47.078Z,100550.13
2022-12-14T01:26:15.967Z,100543.13
2022-12-14T01:28:43.037Z,100541.56
2022-12-14T01:31:13.344Z,100549.47
2022-12-14T01:33:40.450Z,100549.47
2022-12-14T01:36:12.580Z,100550.38
2022-12-14T01:38:39.979Z,100546.94
2022-12-14T01:41:08.992Z,100552.22
2022-12-14T01:43:52.125Z,100547.94
2022-12-14T01:46:28.568Z,100554.97
2022-12-14T01:49:02.183Z,100548.06
2022-12-14T01:51:31.419Z,100544.56
2022-12-14T01:54:00.598Z,100542.81
2022-12-14T01:56:27.646Z,100542.88
2022-12-14T01:58:56.650Z,100545.56
2022-12-14T02:01:23.692Z,100543.00
2022-12-14T02:03:53.118Z,100548.28
2022-12-14T02:06:26.888Z,100541.28
2022-12-14T02:08:55.193Z,100530.00
2022-12-14T02:11:40.067Z,100533.53
2022-12-14T02:14:06.873Z,100546.66
2022-12-14T02:16:33.871Z,100552.88
2022-12-14T02:19:00.910Z,100560.69
2022-12-14T02:21:46.520Z,100562.53
2022-12-14T02:25:07.304Z,100571.31
2022-12-14T02:28:02.062Z,100563.44
2022-12-14T02:30:35.776Z,100566.06
2022-12-14T02:33:17.789Z,100566.06
2022-12-14T02:36:07.655Z,100558.25
2022-12-14T02:38:40.190Z,100560.81
2022-12-14T02:41:22.247Z,100552.00
2022-12-14T02:43:57.808Z,100557.25
2022-12-14T02:46:39.651Z,100548.44
2022-12-14T02:49:37.482Z,100558.94
2022-12-14T02:52:17.764Z,100557.25
2022-12-14T02:54:56.228Z,100549.44
2022-12-14T02:57:29.873Z,100561.66
2022-12-14T03:00:01.028Z,100560.88
2022-12-14T03:02:29.741Z,100568.75
2022-12-14T03:04:57.044Z,100563.50
2022-12-14T03:07:40.920Z,100561.75
2022-12-14T03:10:48.345Z,100570.44
2022-12-14T03:13:31.108Z,100574.88
2022-12-14T03:16:04.493Z,100561.78
2022-12-14T03:18:37.073Z,100562.56
2022-12-14T03:21:08.138Z,100561.75
2022-12-14T03:23:41.473Z,100561.78
2022-12-14T03:26:18.630Z,100565.19
2022-12-14T03:28:57.570Z,100556.53
2022-12-14T03:31:49.144Z,100563.56
2022-12-14T03:34:21.593Z,100559.09
2022-12-14T03:37:00.296Z,100560.88
2022-12-14T03:39:32.385Z,100547.75
2022-12-14T03:42:18.594Z,100551.28
2022-12-14T03:44:57.450Z,100554.69
2022-12-14T03:47:44.251Z,100553.91
2022-12-14T03:50:14.657Z,100553.00
2022-12-14T03:53:01.328Z,100558.25
2022-12-14T03:56:02.667Z,100552.22
2022-12-14T03:58:29.445Z,100558.25
2022-12-14T04:01:21.703Z,100550.41
2022-12-14T04:04:01.447Z,100553.91
2022-12-14T04:06:43.998Z,100553.00
2022-12-14T04:09:29.376Z,100553.91
2022-12-14T04:12:25.197Z,100560.81
2022-12-14T04:15:30.546Z,100555.53
2022-12-14T04:18:20.935Z,100553.78
2022-12-14T04:21:20.217Z,100555.50
2022-12-14T04:24:09.503Z,100552.88
2022-12-14T04:26:42.943Z,100546.75
2022-12-14T04:29:34.265Z,100549.31
2022-12-14T04:32:27.386Z,100539.66
2022-12-14T04:35:19.364Z,100533.53
2022-12-14T04:37:51.151Z,100541.41
2022-12-14T04:40:24.358Z,100534.41
2022-12-14T04:43:03.468Z,100527.38
2022-12-14T04:45:35.526Z,100535.31
2022-12-14T04:48:39.786Z,100540.44
2022-12-14T04:51:11.348Z,100539.53
2022-12-14T04:53:41.289Z,100532.50
2022-12-14T04:56:20.497Z,100531.56
2022-12-14T04:58:47.518Z,100520.22
2022-12-14T05:01:17.248Z,100513.97
2022-12-14T05:03:59.601Z,100515.66
2022-12-14T05:06:41.673Z,100511.28
2022-12-14T05:09:29.615Z,100507.72
2022-12-14T05:12:11.056Z,100503.38
2022-12-14T05:14:41.669Z,100505.03
2022-12-14T05:17:09.728Z,100511.16
2022-12-14T05:19:37.981Z,100509.38
2022-12-14T05:22:07.566Z,100513.81
2022-12-14T05:24:34.465Z,100520.78
2022-12-14T05:27:01.450Z,100525.94
2022-12-14T05:29:28.317Z,100527.66
2022-12-14T05:31:55.788Z,100532.03
2022-12-14T05:34:22.710Z,100529.34
2022-12-14T05:36:49.966Z,100528.75
2022-12-14T05:39:17.118Z,100535.84
2022-12-14T05:41:44.344Z,100532.63
2022-12-14T05:44:11.398Z,100540.63
2022-12-14T05:46:38.405Z,100539.84
2022-12-14T05:49:05.320Z,100538.22
2022-12-14T05:51:32.336Z,100534.72
2022-12-14T05:53:59.356Z,100533.19
2022-12-14T05:56:26.311Z,100527.09
2022-12-14T05:58:53.281Z,100517.56
2022-12-14T06:01:20.503Z,100526.31
2022-12-14T06:03:48.365Z,100516.69
2022-12-14T06:06:15.574Z,100513.91
2022-12-14T06:08:44.854Z,100521.47
2022-12-14T06:11:22.169Z,100514.22
2022-12-14T06:13:49.800Z,100517.63
2022-12-14T06:16:23.308Z,100517.50
2022-12-14T06:18:56.069Z,100519.88
2022-12-14T06:21:32.111Z,100516.66
2022-12-14T06:23:59.952Z,100519.75
2022-12-14T06:26:28.152Z,100513.03
2022-12-14T06:28:56.084Z,100515.00
2022-12-14T06:31:29.180Z,100515.13
2022-12-14T06:34:02.028Z,100506.47
2022-12-14T06:36:31.706Z,100505.28
2022-12-14T06:39:01.847Z,100506.72
2022-12-14T06:41:29.122Z,100498.59
2022-12-14T06:43:56.995Z,100510.66
2022-12-14T06:46:25.708Z,100513.25
2022-12-14T06:48:54.341Z,100518.41
2022-12-14T06:51:22.178Z,100514.88
2022-12-14T06:53:53.559Z,100520.00
2022-12-14T06:56:21.015Z,100522.66
2022-12-14T06:58:48.541Z,100520.91
2022-12-14T07:01:18.279Z,100524.41
2022-12-14T07:03:49.915Z,100530.53
2022-12-14T07:06:17.678Z,100544.44
2022-12-14T07:08:45.077Z,100543.53
2022-12-14T07:11:14.056Z,100543.53
2022-12-14T07:13:42.617Z,100544.25
2022-12-14T07:16:15.838Z,100554.75
2022-12-14T07:18:43.115Z,100550.44
2022-12-14T07:21:12.455Z,100554.75
2022-12-14T07:23:41.148Z,100549.47
2022-12-14T07:26:20.113Z,100552.09
2022-12-14T07:28:47.734Z,100547.59
2022-12-14T07:31:21.530Z,100553.66
2022-12-14T07:33:49.163Z,100551.09
2022-12-14T07:36:18.538Z,100562.34
2022-12-14T07:38:47.589Z,100557.09
2022-12-14T07:41:23.713Z,100555.25
2022-12-14T07:43:52.165Z,100551.75
2022-12-14T07:46:25.028Z,100554.38
2022-12-14T07:48:54.988Z,100551.66
2022-12-14T07:51:26.175Z,100553.41
2022-12-14T07:53:53.428Z,100553.41
2022-12-14T07:56:26.095Z,100556.88
2022-12-14T07:58:56.499Z,100551.53
2022-12-14T08:01:25.600Z,100541.88
2022-12-14T08:03:56.722Z,100549.69
2022-12-14T08:06:28.648Z,100542.75
2022-12-14T08:09:01.025Z,100548.00
2022-12-14T08:11:29.321Z,100553.19
2022-12-14T08:14:03.003Z,100555.81
2022-12-14T08:16:34.871Z,100550.56
2022-12-14T08:19:03.553Z,100559.31
2022-12-14T08:21:30.829Z,100555.91
2022-12-14T08:23:59.483Z,100565.47
2022-12-14T08:26:30.198Z,100569.91
2022-12-14T08:29:02.267Z,100571.72
2022-12-14T08:31:29.639Z,100570.88
2022-12-14T08:33:59.224Z,100571.66
2022-12-14T08:36:31.408Z,100570.72
2022-12-14T08:39:01.672Z,100573.88
2022-12-14T08:41:30.612Z,100573.88
2022-12-14T08:43:59.983Z,100569.16
2022-12-14T08:46:29.429Z,100577.59
2022-12-14T08:48:57.783Z,100576.59
2022-12-14T08:51:26.679Z,100585.06
2022-12-14T08:53:54.918Z,100580.47
2022-12-14T08:56:25.042Z,100582.19
2022-12-14T08:58:52.639Z,100587.31
2022-12-14T09:01:32.657Z,100575.03
2022-12-14T09:04:08.886Z,100588.09
2022-12-14T09:06:40.098Z,100582.72
2022-12-14T09:09:15.706Z,100591.50
2022-12-14T09:11:45.330Z,100597.31
2022-12-14T09:14:13.377Z,100602.69
2022-12-14T09:16:40.639Z,100609.38
2022-12-14T09:19:07.883Z,100613.53
2022-12-14T09:21:35.146Z,100615.06
2022-12-14T09:24:02.166Z,100607.91
2022-12-14T09:26:30.091Z,100603.50
2022-12-14T09:28:58.337Z,100594.53
2022-12-14T09:31:27.310Z,100596.13
2022-12-14T09:33:55.765Z,100603.72
2022-12-14T09:36:28.595Z,100593.94
2022-12-14T09:38:57.169Z,100591.88
2022-12-14T09:41:41.498Z,100587.34
2022-12-14T09:44:14.606Z,100594.13
2022-12-14T09:46:54.055Z,100599.25
2022-12-14T09:49:27.262Z,100603.59
2022-12-14T09:51:57.095Z,100601.63
2022-12-14T09:54:28.656Z,100604.94
2022-12-14T09:57:01.400Z,100596.88
2022-12-14T09:59:32.098Z,100595.00
2022-12-14T10:02:43.913Z,100607.31
2022-12-14T10:05:32.466Z,100601.06
2022-12-14T10:08:14.452Z,100624.41
2022-12-14T10:11:03.122Z,100606.81
2022-12-14T10:13:42.508Z,100606.50
2022-12-14T10:16:32.516Z,100606.22
2022-12-14T10:19:33.647Z,100603.22
2022-12-14T10:22:05.596Z,100602.09
2022-12-14T10:25:17.218Z,100600.88
2022-12-14T10:28:09.800Z,100613.84
2022-12-14T10:30:36.693Z,100609.22
2022-12-14T10:33:17.617Z,100612.47
2022-12-14T10:35:55.532Z,100608.75
2022-12-14T10:38:54.804Z,100607.63
2022-12-14T10:41:25.319Z,100602.97
2022-12-14T10:44:18.938Z,100607.56
2022-12-14T10:46:52.437Z,100605.78
2022-12-14T10:49:33.777Z,100611.13
2022-12-14T10:52:19.130Z,100605.69
2022-12-14T10:55:02.586Z,100606.41
2022-12-14T10:57:29.802Z,100602.63
2022-12-14T11:00:08.262Z,100607.72
2022-12-14T11:02:45.174Z,100593.53
2022-12-14T11:05:42.066Z,100600.31
2022-12-14T11:08:10.403Z,100609.00
2022-12-14T11:10:41.108Z,100599.28
2022-12-14T11:13:14.239Z,100606.53
2022-12-14T11:15:44.019Z,100611.31
2022-12-14T11:18:18.212Z,100617.59
2022-12-14T11:20:54.839Z,100610.75
2022-12-14T11:23:27.517Z,100619.59
2022-12-14T11:25:59.283Z,100615.97
2022-12-14T11:28:31.324Z,100611.16
2022-12-14T11:31:13.824Z,100602.03
2022-12-14T11:33:49.963Z,100605.28
2022-12-14T11:36:36.581Z,100605.00
2022-12-14T11:39:16.087Z,100597.69
2022-12-14T11:42:04.261Z,100599.34
2022-12-14T11:44:39.074Z,100600.97
2022-12-14T11:47:13.523Z,100595.38
2022-12-14T11:49:41.208Z,100599.72
2022-12-14T11:52:18.651Z,100583.75
2022-12-14T11:55:09.817Z,100600.81
2022-12-14T11:57:40.444Z,100594.31
2022-12-14T12:00:29.607Z,100594.84
2022-12-14T12:03:07.150Z,100585.78
2022-12-14T12:05:40.015Z,100581.91
2022-12-14T12:08:25.706Z,100583.44
2022-12-14T12:11:01.985Z,100581.41
2022-12-14T12:13:32.375Z,100576.72
2022-12-14T12:16:07.127Z,100574.91
2022-12-14T12:18:46.506Z,100565.09
2022-12-14T12:21:35.617Z,100562.97
2022-12-14T12:24:08.216Z,100564.53
2022-12-14T12:26:44.101Z,100562.56
2022-12-14T12:29:20.113Z,100556.19
2022-12-14T12:32:20.166Z,100556.03
2022-12-14T12:35:15.062Z,100573.41
2022-12-14T12:37:55.180Z,100568.13
2022-12-14T12:40:33.748Z,100574.34
2022-12-14T12:43:06.518Z,100559.09
2022-12-14T12:45:46.229Z,100569.34
2022-12-14T12:48:25.832Z,100574.44
2022-12-14T12:51:00.509Z,100569.84
2022-12-14T12:53:44.852Z,100570.59
2022-12-14T12:56:31.333Z,100565.16
2022-12-14T12:59:00.500Z,100556.22
2022-12-14T13:01:40.325Z,100544.47
2022-12-14T13:04:14.430Z,100546.16
2022-12-14T13:06:44.654Z,100545.31
2022-12-14T13:09:18.588Z,100554.09
2022-12-14T13:11:46.571Z,100551.34
2022-12-14T13:14:50.027Z,100547.69
2022-12-14T13:17:44.083Z,100556.47
2022-12-14T13:20:38.599Z,100552.13
2022-12-14T13:26:55.597Z,100548.88
2022-12-14T13:29:14.489Z,100550.53
2022-12-14T13:31:46.486Z,100552.91
2022-12-14T13:34:48.207Z,100547.34
2022-12-14T13:37:34.701Z,100551.34
2022-12-14T13:40:20.265Z,100544.03
2022-12-14T13:42:53.876Z,100542.06
2022-12-14T13:45:36.423Z,100526.28
2022-12-14T13:48:16.528Z,100534.06
2022-12-14T13:50:54.368Z,100539.34
2022-12-14T13:53:50.609Z,100530.38
2022-12-14T13:56:20.416Z,100532.00
2022-12-14T13:58:51.207Z,100532.00
2022-12-14T14:01:47.661Z,100525.16
2022-12-14T14:04:20.695Z,100532.50
2022-12-14T14:06:56.692Z,100528.78
2022-12-14T14:09:33.415Z,100524.13
2022-12-14T14:12:24.333Z,100520.84
2022-12-14T14:14:52.676Z,100528.50
2022-12-14T14:17:38.313Z,100530.28
2022-12-14T14:20:40.789Z,100540.84
2022-12-14T14:23:20.708Z,100535.16
2022-12-14T14:26:14.486Z,100537.81
2022-12-14T14:28:42.529Z,100541.75
2022-12-14T14:31:11.173Z,100548.44
2022-12-14T14:33:51.281Z,100554.75
2022-12-14T14:36:34.453Z,100566.13
2022-12-14T14:39:54.965Z,100565.44
2022-12-14T14:42:26.450Z,100571.25
2022-12-14T14:44:57.618Z,100579.06
2022-12-14T14:47:32.736Z,100579.06
2022-12-14T14:50:04.300Z,100581.53
2022-12-14T14:52:40.479Z,100574.38
2022-12-14T14:58:25.625Z,100578.81
2022-12-14T15:01:00.503Z,100580.00
2022-12-14T15:03:55.642Z,100568.81
2022-12-14T15:06:30.184Z,100571.31
2022-12-14T15:09:06.010Z,100576.75
2022-12-14T15:11:52.465Z,100565.59
2022-12-14T15:14:25.319Z,100567.31
2022-12-14T15:16:52.526Z,100569.84
2022-12-14T15:19:23.921Z,100565.25
2022-12-14T15:21:58.189Z,100560.91
2022-12-14T15:24:27.494Z,100559.22
2022-12-14T15:26:56.521Z,100564.50
2022-12-14T15:29:29.498Z,100568.06
2022-12-14T15:32:01.079Z,100555.03
2022-12-14T15:34:29.040Z,100562.94
2022-12-14T15:36:58.132Z,100557.66
2022-12-14T15:39:40.987Z,100561.22
2022-12-14T15:42:18.630Z,100560.47
2022-12-14T15:44:55.964Z,100560.31
2022-12-14T15:47:31.929Z,100545.16
2022-12-14T15:50:22.271Z,100557.41
2022-12-14T15:52:52.163Z,100541.53
2022-12-14T15:55:33.286Z,100544.28
2022-12-14T15:58:27.034Z,100542.50
2022-12-14T16:00:58.595Z,100540.03
2022-12-14T16:03:40.572Z,100548.03
2022-12-14T16:06:10.910Z,100535.06
2022-12-14T16:08:44.311Z,100541.53
2022-12-14T16:11:23.530Z,100537.72
2022-12-14T16:13:50.743Z,100550.56
2022-12-14T16:16:18.720Z,100540.38
2022-12-14T16:18:52.294Z,100545.06
2022-12-14T16:21:33.029Z,100528.63
2022-12-14T16:24:13.429Z,100528.13
2022-12-14T16:26:40.550Z,100545.13
2022-12-14T16:29:29.554Z,100544.34
2022-12-14T16:32:16.573Z,100542.94
2022-12-14T16:34:59.031Z,100537.50
2022-12-14T16:37:34.875Z,100543.91
2022-12-14T16:40:02.709Z,100538.69
2022-12-14T16:42:32.932Z,100542.34
2022-12-14T16:45:00.625Z,100544.97
2022-12-14T16:48:10.639Z,100536.25
2022-12-14T16:50:56.694Z,100537.06
2022-12-14T16:53:35.361Z,100533.50
2022-12-14T16:56:33.955Z,100526.09
2022-12-14T16:59:07.537Z,100530.53
2022-12-14T17:01:44.731Z,100521.22
2022-12-14T17:04:14.877Z,100522.31
2022-12-14T17:06:49.554Z,100521.50
2022-12-14T17:09:23.051Z,100522.63
2022-12-14T17:11:53.340Z,100514.59
2022-12-14T17:14:20.925Z,100523.53
2022-12-14T17:16:51.119Z,100524.78
2022-12-14T17:19:26.907Z,100517.66
2022-12-14T17:21:54.190Z,100521.25
2022-12-14T17:24:23.401Z,100521.31
2022-12-14T17:26:51.775Z,100512.63
2022-12-14T17:29:24.640Z,100503.00
2022-12-14T17:31:56.326Z,100512.78
2022-12-14T17:34:24.114Z,100504.78
2022-12-14T17:36:51.762Z,100497.03
2022-12-14T17:39:18.856Z,100494.88
2022-12-14T17:41:48.286Z,100487.72
2022-12-14T17:44:18.643Z,100487.06
2022-12-14T17:46:50.312Z,100484.34
2022-12-14T17:49:34.466Z,100486.94
2022-12-14T17:52:07.616Z,100492.06
2022-12-14T17:54:35.710Z,100486.63
2022-12-14T17:57:03.825Z,100493.50
2022-12-14T17:59:31.080Z,100486.09
2022-12-14T18:01:58.580Z,100464.50
2022-12-14T18:04:26.616Z,100483.09
2022-12-14T18:06:53.930Z,100495.16
2022-12-14T18:09:21.495Z,100489.78
2022-12-14T18:12:21.027Z,100470.56
2022-12-14T18:14:36.032Z,100480.31
2022-12-14T18:17:06.737Z,100460.97
2022-12-14T18:19:39.639Z,100470.94
2022-12-14T18:22:08.134Z,100464.38
2022-12-14T18:24:35.367Z,100456.53
2022-12-14T18:27:02.655Z,100464.97
2022-12-14T18:29:29.906Z,100463.06
2022-12-14T18:31:57.277Z,100459.50
2022-12-14T18:34:24.813Z,100444.00
2022-12-14T18:36:52.352Z,100452.28
2022-12-14T18:39:19.563Z,100457.38
2022-12-14T18:41:47.001Z,100452.94
2022-12-14T18:44:14.266Z,100459.00
2022-12-14T18:46:41.478Z,100445.28
2022-12-14T18:49:08.887Z,100465.03
2022-12-14T18:51:36.835Z,100475.44
2022-12-14T18:54:04.819Z,100459.59
2022-12-14T18:56:35.788Z,100466.22
2022-12-14T18:59:04.973Z,100467.94
2022-12-14T19:01:32.327Z,100466.81
2022-12-14T19:03:59.602Z,100467.94
2022-12-14T19:06:44.661Z,100463.56
2022-12-14T19:09:14.315Z,100446.63
2022-12-14T19:11:42.854Z,100450.25
2022-12-14T19:14:10.909Z,100448.97
2022-12-14T19:16:38.382Z,100452.75
2022-12-14T19:19:06.430Z,100462.69
2022-12-14T19:21:35.704Z,100451.72
2022-12-14T19:24:03.696Z,100463.31
2022-12-14T19:26:31.574Z,100451.06
2022-12-14T19:29:02.061Z,100450.78
2022-12-14T19:31:30.497Z,100447.09
2022-12-14T19:33:58.602Z,100445.22
2022-12-14T19:36:26.739Z,100439.00
2022-12-14T19:38:54.349Z,100437.88
2022-12-14T19:41:23.694Z,100438.75
2022-12-14T19:43:51.090Z,100433.63
2022-12-14T19:46:19.884Z,100434.06
2022-12-14T19:48:47.536Z,100433.75
2022-12-14T19:51:19.622Z,100439.97
2022-12-14T19:53:48.797Z,100438.28
2022-12-14T19:56:19.519Z,100441.75
2022-12-14T19:58:48.834Z,100444.06
2022-12-14T20:01:21.565Z,100439.72
2022-12-14T20:03:50.120Z,100450.31
2022-12-14T20:06:18.237Z,100443.38
2022-12-14T20:08:49.543Z,100442.44
2022-12-14T20:11:18.158Z,100445.09
2022-12-14T20:13:45.983Z,100443.03
2022-12-14T20:16:17.838Z,100444.56
2022-12-14T20:18:46.252Z,100439.13
2022-12-14T20:21:20.251Z,100439.78
2022-12-14T20:23:49.805Z,100444.88
2022-12-14T20:26:20.574Z,100443.84
2022-12-14T20:28:49.294Z,100443.69
2022-12-14T20:31:17.550Z,100443.50
2022-12-14T20:33:46.074Z,100452.00
2022-12-14T20:36:17.071Z,100434.25
2022-12-14T20:38:45.910Z,100439.72
2022-12-14T20:41:17.733Z,100436.09
2022-12-14T20:43:49.330Z,100433.28
2022-12-14T20:46:34.247Z,100434.63
2022-12-14T20:49:09.848Z,100424.72
2022-12-14T20:51:38.964Z,100424.72
2022-12-14T20:54:09.394Z,100418.41
2022-12-14T20:56:38.242Z,100413.81
2022-12-14T20:59:23.062Z,100418.06
2022-12-14T21:01:55.792Z,100419.78
2022-12-14T21:04:23.832Z,100418.84
2022-12-14T21:06:52.656Z,100424.88
2022-12-14T21:09:21.978Z,100425.72
2022-12-14T21:12:12.192Z,100426.13
2022-12-14T21:14:43.021Z,100428.94
2022-12-14T21:17:14.861Z,100442.16
2022-12-14T21:19:46.121Z,100443.03
2022-12-14T21:22:17.620Z,100447.34
2022-12-14T21:25:04.794Z,100434.78
2022-12-14T21:27:34.841Z,100434.25
2022-12-14T21:30:03.056Z,100432.69
2022-12-14T21:32:31.037Z,100423.59
2022-12-14T21:34:58.811Z,100417.31
2022-12-14T21:37:29.912Z,100423.13
2022-12-14T21:39:58.782Z,100429.75
2022-12-14T21:42:27.861Z,100421.19
2022-12-14T21:44:58.086Z,100410.63
2022-12-14T21:47:33.825Z,100410.78
2022-12-14T21:50:02.894Z,100401.69
2022-12-14T21:52:33.569Z,100404.81
2022-12-14T21:55:01.686Z,100403.72
2022-12-14T21:57:50.330Z,100396.38
2022-12-14T22:00:21.112Z,100405.22
2022-12-14T22:02:49.562Z,100409.59
2022-12-14T22:05:18.408Z,100408.31
2022-12-14T22:07:48.080Z,100411.41
2022-12-14T22:10:24.444Z,100421.44
2022-12-14T22:12:52.804Z,100433.28
2022-12-14T22:15:20.363Z,100423.03
2022-12-14T22:17:47.784Z,100412.81
2022-12-14T22:20:15.559Z,100415.72
2022-12-14T22:22:44.221Z,100416.84
2022-12-14T22:25:13.342Z,100408.31
2022-12-14T22:27:40.954Z,100408.53
2022-12-14T22:30:09.780Z,100415.78
2022-12-14T22:32:37.561Z,100418.63
2022-12-14T22:35:05.670Z,100424.16
2022-12-14T22:37:34.548Z,100436.66
2022-12-14T22:40:02.668Z,100427.28
2022-12-14T22:42:29.719Z,100428.38
2022-12-14T22:44:56.794Z,100420.63
2022-12-14T22:47:23.728Z,100415.50
2022-12-14T22:49:50.726Z,100406.13
2022-12-14T22:52:24.335Z,100406.28
2022-12-14T22:54:52.176Z,100415.31
2022-12-14T22:57:21.453Z,100414.72
2022-12-14T22:59:55.102Z,100425.50
2022-12-14T23:02:23.057Z,100444.00
2022-12-14T23:04:50.469Z,100454.72
2022-12-14T23:07:17.923Z,100449.78
2022-12-14T23:10:04.063Z,100455.97
2022-12-14T23:12:49.741Z,100449.97
2022-12-14T23:15:35.452Z,100453.78
2022-12-14T23:18:25.616Z,100444.41
2022-12-14T23:21:11.934Z,100437.69
2022-12-14T23:23:59.473Z,100449.28
2022-12-14T23:26:45.856Z,100450.28
2022-12-14T23:29:31.882Z,100453.16
2022-12-14T23:32:17.472Z,100467.41
2022-12-14T23:35:03.319Z,100477.25
2022-12-14T23:37:48.892Z,100481.66
2022-12-14T23:40:35.858Z,100476.69
2022-12-14T23:43:33.630Z,100490.91
2022-12-14T23:46:20.507Z,100488.44
2022-12-14T23:49:09.316Z,100491.22
2022-12-14T23:51:59.785Z,100487.97
2022-12-14T23:54:45.548Z,100487.16
2022-12-14T23:57:31.374Z,100490.88
